Aroma Park, IL (60910)

5:55 AM CDT on August 29, 2015 (GMT -0500)
rural Saint Anne | | Change Station
CLOSE
Current Station
Personal Weather Station
Location: Saint Anne, IL
Elevation: 689 ft
Nearby Weather Stations

Elev 689 ft 41.06 °N, 87.75 °W | Updated 1 minute ago

Mostly Cloudy
Mostly Cloudy
63.0 °F
Feels Like 63.0 °F
N
1.7
Wind Variable Wind from ESE

Today
High -- | Low -- °F
--% Chance of Precip.
Yesterday
High -- | Low -- °F
Precip. -- in
6:14 AM 7:29 PM
Full, 100% visible
Pressure 30.05 in
Visibility 10.0 miles
Clouds Mostly Cloudy 4800 ft
Mostly Cloudy 11000 ft
Dew Point 62 °F
Humidity 95%
Rainfall 0.00 in
Snow Depth Not available.
UV 0 out of 12
Pollen 8.60 out of 12
Air Quality Not available.
Flu Activity Not available.
METAR KIKK 291035Z AUTO 00000KT 10SM BKN048 BKN110 17/16 A3005 RMK AO2 T01710161
Pressure 30.05 in
Visibility 10.0 miles
Clouds Mostly Cloudy 4800 ft
Mostly Cloudy 11000 ft
Dew Point 62 °F
Humidity 95%
Rainfall 0.00 in
Snow Depth Not available.
UV 0 out of 12
Pollen 8.60 out of 12
Air Quality Not available.
Flu Activity Not available.
METAR KIKK 291035Z AUTO 00000KT 10SM BKN048 BKN110 17/16 A3005 RMK AO2 T01710161

10-Day Weather Forecast

×

Almanac

Astronomy

Aug. 29, 2015 Rise Set
Actual Time
Civil Twilight
Nautical Twilight
Astronomical Twilight
Moon
Length of Visible Light
Length of Day
Tomorrow will be .
, % of the Moon is Illuminated

Today's Extremes

State Highs State Lows

Community

WunderPhotos

Upload Photos

1,850,633 photos uploaded!

WunderBlogs® & News

Nearby

Air Quality

  Air Quality AQ Index Pollutant
Not available.

Snow Depth

Station Depth Elevation

Earthquake Activity

City Distance Mag. Time & Date
Minimum magnitude displayed is 2.5.

Coastal Water Temperatures

Place Temperature

Stations

Nearby Weather Stations

Station Location Temp. Windchill Dew Point Humidity Wind Precip. Elev Updated Type